createdAt,value
2022-12-24T00:04:34.787Z,97946.34
2022-12-24T00:09:26.678Z,97945.53
2022-12-24T00:14:18.395Z,97944.47
2022-12-24T00:19:10.144Z,97949.59
2022-12-24T00:24:04.272Z,97953.16
2022-12-24T00:28:56.135Z,97950.44
2022-12-24T00:33:48.362Z,97943.97
2022-12-24T00:38:40.325Z,97954.66
2022-12-24T00:43:32.594Z,97946.47
2022-12-24T00:48:24.482Z,97959.34
2022-12-24T00:53:17.220Z,97958.22
2022-12-24T00:58:08.999Z,97964.53
2022-12-24T01:03:00.713Z,97977.66
2022-12-24T01:07:54.078Z,97989.38
2022-12-24T01:12:46.757Z,97980.94
2022-12-24T01:17:38.601Z,97979.31
2022-12-24T01:22:30.367Z,97987.63
2022-12-24T01:27:22.167Z,98000.84
2022-12-24T01:32:13.827Z,98003.06
2022-12-24T01:37:05.613Z,98005.69
2022-12-24T01:42:15.986Z,98010.94
2022-12-24T01:47:18.165Z,98009.41
2022-12-24T01:52:16.168Z,98020.44
2022-12-24T01:57:16.128Z,98015.84
2022-12-24T02:02:08.087Z,98017.50
2022-12-24T02:07:00.582Z,98015.84
2022-12-24T02:11:52.582Z,98033.53
2022-12-24T02:16:59.524Z,98013.53
2022-12-24T02:21:58.605Z,98031.53
2022-12-24T02:27:02.434Z,98038.25
2022-12-24T02:32:21.278Z,98039.97
2022-12-24T02:37:16.969Z,98046.06
2022-12-24T02:42:12.109Z,98056.38
2022-12-24T02:47:06.491Z,98060.59
2022-12-24T02:51:58.260Z,98061.06
2022-12-24T02:57:16.800Z,98066.69
2022-12-24T03:02:31.395Z,98086.00
2022-12-24T03:07:26.825Z,98088.06
2022-12-24T03:12:35.956Z,98095.56
2022-12-24T03:17:28.263Z,98100.59
2022-12-24T03:22:22.426Z,98111.22
2022-12-24T03:27:15.254Z,98120.59
2022-12-24T03:32:07.486Z,98126.44
2022-12-24T03:36:59.230Z,98131.44
2022-12-24T03:41:50.972Z,98135.66
2022-12-24T03:46:42.681Z,98137.97
2022-12-24T03:51:34.468Z,98148.03
2022-12-24T03:56:26.658Z,98147.41
2022-12-24T04:01:18.594Z,98135.47
2022-12-24T04:06:13.420Z,98133.44
2022-12-24T04:11:09.866Z,98135.75
2022-12-24T04:16:13.196Z,98142.63
2022-12-24T04:21:05.725Z,98144.13
2022-12-24T04:25:59.968Z,98159.91
2022-12-24T04:30:51.634Z,98170.50
2022-12-24T04:35:43.612Z,98177.41
2022-12-24T04:40:35.870Z,98180.31
2022-12-24T04:45:27.658Z,98182.38
2022-12-24T04:50:19.458Z,98170.59
2022-12-24T04:55:11.185Z,98181.34
2022-12-24T05:00:05.708Z,98189.19
2022-12-24T05:04:57.509Z,98197.50
2022-12-24T05:09:49.217Z,98189.41
2022-12-24T05:14:40.919Z,98199.94
2022-12-24T05:19:32.855Z,98212.16
2022-12-24T05:24:43.003Z,98217.06
2022-12-24T05:29:34.711Z,98229.47
2022-12-24T05:34:26.417Z,98235.69
2022-12-24T05:39:18.837Z,98240.22
2022-12-24T05:44:10.810Z,98238.59
2022-12-24T05:49:02.673Z,98249.38
2022-12-24T05:53:54.418Z,98249.38
2022-12-24T05:58:46.432Z,98268.19
2022-12-24T06:03:38.441Z,98265.94
2022-12-24T06:08:31.859Z,98272.81
2022-12-24T06:13:23.657Z,98275.72
2022-12-24T06:18:15.307Z,98272.44
2022-12-24T06:23:06.892Z,98275.72
2022-12-24T06:27:58.523Z,98276.53
2022-12-24T06:32:50.146Z,98285.44
2022-12-24T06:37:41.866Z,98282.75
2022-12-24T06:42:33.505Z,98284.00
2022-12-24T06:47:25.571Z,98289.38
2022-12-24T06:52:17.222Z,98289.59
2022-12-24T06:57:09.039Z,98299.56
2022-12-24T07:02:00.808Z,98296.88
2022-12-24T07:06:52.641Z,98293.09
2022-12-24T07:11:44.356Z,98309.25
2022-12-24T07:16:36.225Z,98315.25
2022-12-24T07:21:28.071Z,98317.09
2022-12-24T07:26:19.883Z,98317.94
2022-12-24T07:31:11.575Z,98317.09
2022-12-24T07:36:07.186Z,98316.28
2022-12-24T07:40:59.149Z,98314.84
2022-12-24T07:45:51.044Z,98307.84
2022-12-24T07:50:43.056Z,98308.88
2022-12-24T07:55:36.100Z,98308.50
2022-12-24T08:00:27.903Z,98313.88
2022-12-24T08:05:19.703Z,98323.19
2022-12-24T08:10:11.397Z,98315.13
2022-12-24T08:15:03.160Z,98317.22
2022-12-24T08:19:54.831Z,98330.69
2022-12-24T08:24:46.525Z,98332.53
2022-12-24T08:29:38.378Z,98347.03
2022-12-24T08:34:30.122Z,98343.50
2022-12-24T08:39:22.014Z,98358.81
2022-12-24T08:44:13.752Z,98358.00
2022-12-24T08:49:05.431Z,98363.16
2022-12-24T08:53:57.053Z,98377.00
2022-12-24T08:58:49.833Z,98378.00
2022-12-24T09:03:42.133Z,98382.50
2022-12-24T09:08:34.057Z,98377.72
2022-12-24T09:13:25.893Z,98381.22
2022-12-24T09:18:17.497Z,98376.25
2022-12-24T09:23:09.242Z,98375.19
2022-12-24T09:28:00.823Z,98373.09
2022-12-24T09:32:52.556Z,98380.34
2022-12-24T09:37:44.189Z,98389.69
2022-12-24T09:42:51.947Z,98403.28
2022-12-24T09:48:09.712Z,98402.34
2022-12-24T09:53:07.919Z,98408.66
2022-12-24T09:58:01.129Z,98413.84
2022-12-24T10:02:53.382Z,98424.00
2022-12-24T10:08:11.158Z,98408.41
2022-12-24T10:13:05.610Z,98424.88
2022-12-24T10:18:09.475Z,98421.22
2022-12-24T10:23:23.567Z,98423.59
2022-12-24T10:28:19.328Z,98426.84
2022-12-24T10:33:29.581Z,98430.00
2022-12-24T10:38:21.310Z,98426.03
2022-12-24T10:43:22.740Z,98428.72
2022-12-24T10:48:26.150Z,98422.75
2022-12-24T10:53:52.759Z,98415.19
2022-12-24T10:58:53.740Z,98409.06
2022-12-24T11:03:45.555Z,98416.94
2022-12-24T11:08:40.760Z,98408.66
2022-12-24T11:13:38.362Z,98404.91
2022-12-24T11:18:31.624Z,98405.69
2022-12-24T11:23:23.954Z,98401.19
2022-12-24T11:28:26.312Z,98396.44
2022-12-24T11:33:20.566Z,98382.81
2022-12-24T11:38:19.050Z,98391.53
2022-12-24T11:43:17.196Z,98392.16
2022-12-24T11:48:24.605Z,98397.25
2022-12-24T11:53:25.556Z,98395.22
2022-12-24T11:58:21.525Z,98396.41
2022-12-24T12:03:31.812Z,98395.75
2022-12-24T12:08:27.268Z,98379.75
2022-12-24T12:13:25.965Z,98372.13
2022-12-24T12:18:28.631Z,98378.34
2022-12-24T12:23:30.735Z,98387.91
2022-12-24T12:28:23.481Z,98388.31
2022-12-24T12:33:27.105Z,98383.03
2022-12-24T12:38:23.044Z,98392.00
2022-12-24T12:43:27.421Z,98393.00
2022-12-24T12:48:25.138Z,98385.38
2022-12-24T12:53:28.044Z,98393.03
2022-12-24T12:58:44.159Z,98390.09
2022-12-24T13:03:41.694Z,98395.03
2022-12-24T13:08:57.954Z,98395.59
2022-12-24T13:14:17.505Z,98395.59
2022-12-24T13:19:38.437Z,98389.88
2022-12-24T13:24:31.857Z,98383.16
2022-12-24T13:29:36.474Z,98373.78
2022-12-24T13:34:37.738Z,98380.81
2022-12-24T13:40:02.150Z,98374.25
2022-12-24T13:45:31.884Z,98366.94
2022-12-24T13:50:48.202Z,98358.28
2022-12-24T13:55:53.009Z,98362.50
2022-12-24T14:00:54.682Z,98362.63
2022-12-24T14:05:58.634Z,98349.81
2022-12-24T14:11:02.947Z,98330.34
2022-12-24T14:15:57.728Z,98329.50
2022-12-24T14:20:56.664Z,98325.66
2022-12-24T14:25:49.239Z,98324.22
2022-12-24T14:30:40.851Z,98312.84
2022-12-24T14:35:38.373Z,98317.31
2022-12-24T14:40:39.024Z,98315.06
2022-12-24T14:45:59.508Z,98308.25
2022-12-24T14:51:28.527Z,98314.97
2022-12-24T14:56:22.681Z,98309.78
2022-12-24T15:01:31.020Z,98311.06
2022-12-24T15:06:22.884Z,98310.97
2022-12-24T15:11:20.050Z,98300.41
2022-12-24T15:16:15.834Z,98299.56
2022-12-24T15:21:17.595Z,98289.00
2022-12-24T15:26:16.402Z,98296.28
2022-12-24T15:31:12.711Z,98281.13
2022-12-24T15:36:06.676Z,98273.50
2022-12-24T15:41:00.518Z,98282.91
2022-12-24T15:45:53.864Z,98280.69
2022-12-24T15:50:52.253Z,98269.28
2022-12-24T15:55:59.552Z,98250.63
2022-12-24T16:01:14.071Z,98248.63
2022-12-24T16:06:07.922Z,98242.09
2022-12-24T16:11:20.324Z,98236.31
2022-12-24T16:16:14.742Z,98234.09
2022-12-24T16:21:08.093Z,98244.28
2022-12-24T16:25:59.738Z,98238.31
2022-12-24T16:30:51.556Z,98247.47
2022-12-24T16:35:44.094Z,98250.16
2022-12-24T16:40:35.910Z,98256.81
2022-12-24T16:45:30.883Z,98247.09
2022-12-24T16:50:22.705Z,98245.69
2022-12-24T16:55:15.002Z,98236.78
2022-12-24T17:00:09.286Z,98228.94
2022-12-24T17:05:00.927Z,98202.19
2022-12-24T17:09:52.687Z,98211.34
2022-12-24T17:14:45.407Z,98205.94
2022-12-24T17:19:37.729Z,98204.66
2022-12-24T17:24:30.268Z,98178.50
2022-12-24T17:29:22.961Z,98192.34
2022-12-24T17:34:14.691Z,98183.44
2022-12-24T17:39:06.451Z,98169.72
2022-12-24T17:43:59.340Z,98164.91
2022-12-24T17:48:52.140Z,98169.25
2022-12-24T17:53:44.133Z,98167.13
2022-12-24T17:58:35.861Z,98147.22
2022-12-24T18:03:28.779Z,98133.84
2022-12-24T18:08:21.206Z,98117.41
2022-12-24T18:13:19.132Z,98113.44
2022-12-24T18:18:11.137Z,98102.41
2022-12-24T18:23:03.455Z,98103.00
2022-12-24T18:27:55.108Z,98092.81
2022-12-24T18:32:50.175Z,98092.09
2022-12-24T18:37:47.739Z,98094.56
2022-12-24T18:42:42.296Z,98083.84
2022-12-24T18:47:33.968Z,98083.16
2022-12-24T18:52:27.846Z,98072.91
2022-12-24T18:57:19.481Z,98077.28
2022-12-24T19:02:11.414Z,98064.34
2022-12-24T19:07:03.138Z,98079.50
2022-12-24T19:11:54.835Z,98083.84
2022-12-24T19:16:46.632Z,98084.41
2022-12-24T19:21:38.491Z,98081.22
2022-12-24T19:26:30.124Z,98087.56
2022-12-24T19:31:24.960Z,98084.63
2022-12-24T19:36:19.063Z,98086.84
2022-12-24T19:41:12.793Z,98086.38
2022-12-24T19:46:04.987Z,98077.19
2022-12-24T19:51:01.625Z,98078.84
2022-12-24T19:55:53.310Z,98082.09
2022-12-24T20:00:45.036Z,98085.03
2022-12-24T20:05:40.746Z,98086.69
2022-12-24T20:10:32.577Z,98075.91
2022-12-24T20:15:24.187Z,98075.91
2022-12-24T20:20:15.930Z,98068.59
2022-12-24T20:25:08.031Z,98074.84
2022-12-24T20:29:59.714Z,98086.13
2022-12-24T20:34:51.386Z,98085.88
2022-12-24T20:39:44.608Z,98085.53
2022-12-24T20:44:36.262Z,98091.53
2022-12-24T20:49:27.961Z,98083.44
2022-12-24T20:54:21.009Z,98093.13
2022-12-24T20:59:12.700Z,98086.13
2022-12-24T21:04:06.781Z,98082.59
2022-12-24T21:08:58.748Z,98077.66
2022-12-24T21:13:50.452Z,98078.16
2022-12-24T21:18:42.281Z,98075.13
2022-12-24T21:23:33.905Z,98084.50
2022-12-24T21:28:25.725Z,98095.28
2022-12-24T21:33:17.383Z,98092.59
2022-12-24T21:38:09.065Z,98095.28
2022-12-24T21:43:00.841Z,98109.38
2022-12-24T21:47:52.576Z,98112.09
2022-12-24T21:52:44.483Z,98106.09
2022-12-24T21:57:54.307Z,98114.44
2022-12-24T22:02:46.800Z,98101.66
2022-12-24T22:07:57.228Z,98110.81
2022-12-24T22:12:48.817Z,98118.31
2022-12-24T22:17:40.701Z,98114.00
2022-12-24T22:22:32.356Z,98117.75
2022-12-24T22:27:24.158Z,98124.78
2022-12-24T22:32:15.880Z,98127.50
2022-12-24T22:37:07.786Z,98135.81
2022-12-24T22:41:59.427Z,98142.50
2022-12-24T22:46:51.169Z,98144.63
2022-12-24T22:51:42.810Z,98131.00
2022-12-24T22:56:40.655Z,98134.78
2022-12-24T23:01:33.709Z,98140.03
2022-12-24T23:06:25.421Z,98134.53
2022-12-24T23:11:17.605Z,98130.44
2022-12-24T23:16:09.390Z,98125.75
2022-12-24T23:21:05.547Z,98123.53
2022-12-24T23:26:06.360Z,98118.59
2022-12-24T23:30:59.426Z,98123.41
2022-12-24T23:35:53.747Z,98112.88
2022-12-24T23:40:45.923Z,98104.78
2022-12-24T23:45:38.485Z,98109.84
2022-12-24T23:50:30.858Z,98102.44
2022-12-24T23:55:22.556Z,98099.16
